ENI weather

El Nido Airport
El Nido, Palawan Province, Philippines

Public forecast

Using degrees Celsius for public forecast. Weather courtesy of forecast.io.

METAR (pilot weather report)

Report is more than 2 hours old.

Closest report is Puerto Princesa Airport, 95.9 nm (177.6 km) SSW. Retrieved 2019/03/22 12:00 UTC (3 hours ago):

RPVP 221200Z 16004KT 9999 FEW019 28/23 Q1011 RMK A2985

TAF (pilot weather forecast)

Forecast is more than 12 hours old.

Closest forecast is Puerto Princesa Airport, 95.9 nm (177.6 km) SSW. Retrieved 2019/03/21 18:00 UTC (21 hours ago):

TAF RPVP 211700Z 2118/2218 09008KT 9999 FEW019 TEMPO 2118/2124 27004KT